Airfield :
LOGIN :

Register | Disclaimer

   EN    FR    IT 

 










Legend :    VFR   Marginal VFR   IFR   Intensive IFR   Very Intensive IFR
Visi :
Ceiling :
>= 8 km
>= 3000ft
5 to 8 km
1000 to 3000 ft
1500m to 5 km
500 to 1000 ft
800 to 1500m
200 to 500 ft
< 800m
< 200 ft
Symbols :   Thunderstorms  Fog  Heavy snow  Heavy precipitations  Wind > 20 kt
SIGMETs :     Misc.  Thunderstorms  Icing  Turbulence  Mountain Waves  Volcanic Ashes






- Airport Elevation : 194 ft


EBCV - Chièvres

CURRENT METAR :
  • 192125Z AUTO 32010KT 2600 -RA BKN003/// OVC017/// 17/16 Q1008 YLO

EXPIRED METARs :
  • 192055Z AUTO 28008KT 1100 +RA OVC004/// 17/17 Q1009 AMB
  • 192052Z AUTO 27008KT 1000 +RA BKN005/// BKN050/// OVC077/// 17/17 Q1010 AMB
  • 192035Z AUTO 30006KT 1200 +RA FEW009/// SCT050/// OVC086/// 17/17 Q1009 AMB
  • 192010Z AUTO 04005KT 3100 +RA FEW044/// SCT056/// OVC086/// 18/17 Q1008 YLO
  • 191955Z AUTO 02009KT 5000 RA SCT044/// BKN081/// OVC120/// 18/17 Q1008 WHT
  • 191949Z AUTO 05008KT 3800 +RA BKN045/// BKN088/// OVC100/// 18/17 Q1008 GRN
  • 191925Z AUTO 03008KT 9000 -RA OVC067/// 19/16 Q1009 BLU
  • 191855Z AUTO 36007KT 9999 FEW078/// BKN100/// 19/17 Q1010 BLU

TAF TAF EBCV
Valid from the 19 at 19:00 until the 20 at 07:00 UTC


191541Z 1919/2007 03007KT 9999 BKN050
TEMPO 1919/1924 03010G20KT 7000 -SHRA BKN023
TEMPO 1920/1923 03012G25KT 4000 SHRA BKN020TCU
PROB40
TEMPO 1920/1923 VRB15G35KT 2000 TSRAGR BKN013CB
BECMG 2000/2002 20005KT 6000 BKN011
TEMPO 2000/2003 3000 -DZBR SCT008 OVC010
BECMG 2005/2007 20010KT 8000 BKN006 BY EBWM



MET'MAP, your aeronautical weather chart ! - Copyright ORBIFLY December 2007 - Disclaimer

ORBIFLY MET'MAP TEAM :

Programming & Development : Alexandra Zaïnal
Concept & original design : Baudouin d'Aumeries
Assistance for programming : Marc-Olivier Méhu
Technical & hardware support : Manuel Goepfert

Contact : metmap@orbifly.com




SOURCES & CREDITS :

   NOAA